CMA CGM Vivaldi — C6TT2 — position and weather

sailwx.info

Track history (hours):
 
Tides and Currents Weather Stations Pressure Air Temp Water Temp Dewpoint Dewpoint Depression Visibility Wind Speed Wind Dir Waves Ship Positions

CMA CGM Vivaldi

Last reported at 2014-Mar-03 12:09 UTC. Time now 2014-Oct-26 07:10 UTC.
Position N 30°36' E 122°05'.
Warning: this ship's position is months out of date.

Length 334 m; draft 12.7 m.

Type: Ship. MMSI: 311768000.

Date/timePositionNaut miles runAvg speedWind from/ knotsBaromVisibWave heightAir tempDewpointWater temp
2014-Mar-03 12:09N 30°36' E 122°05'4 7.0
2014-Mar-03 11:33N 30°34' E 122°09'9 8.6
2014-Mar-03 10:33N 30°33' E 122°19'17 8.5
2014-Mar-03 08:33N 30°34' E 122°39'1614.9
2014-Mar-03 07:30N 30°45' E 122°52'33417.4
2014-Mar-02 12:22N 35°58' E 120°35'1215.3
2014-Mar-02 11:33N 36°01' E 120°20'6 4.5
2014-Mar-02 10:15N 36°01' E 120°13'0 0.0
2014-Mar-02 09:16N 36°01' E 120°13'0 0.0
2014-Mar-02 08:15N 36°01' E 120°13'0 0.0
2014-Mar-02 06:16N 36°01' E 120°13'0 0.0
2014-Mar-02 05:15N 36°01' E 120°13'0 0.0
2014-Mar-02 04:12N 36°01' E 120°13'0 0.0
2014-Mar-02 03:21N 36°01' E 120°13'0 0.0
2014-Mar-02 02:15N 36°01' E 120°13'0 0.0
2014-Mar-02 01:33N 36°01' E 120°13'0 0.0
2014-Mar-02 00:33N 36°01' E 120°13'0 0.0
2014-Mar-01 23:33N 36°01' E 120°13'0 0.0
2014-Mar-01 22:33N 36°01' E 120°13'0 0.0
2014-Mar-01 21:27N 36°01' E 120°13'0 0.0
2014-Mar-01 20:27N 36°01' E 120°13'0 0.0
2014-Mar-01 19:15N 36°01' E 120°13'0 0.0
2014-Mar-01 18:33N 36°01' E 120°13'0 0.0
2014-Mar-01 17:33N 36°01' E 120°13'0 0.0
2014-Mar-01 14:27N 36°01' E 120°13'1 0.9
2014-Mar-01 13:33N 36°01' E 120°13'9 9.4
2014-Mar-01 12:33N 36°01' E 120°25'7 6.7
2014-Mar-01 11:33N 35°59' E 120°33'7 6.8
2014-Mar-01 10:33N 35°58' E 120°41'10911.5
2014-Mar-01 01:04N 36°48' E 122°42'1111.8
2014-Mar-01 00:09N 36°59' E 122°44'4010.8
2014-Feb-28 20:28N 37°38' E 122°38'1011.2
2014-Feb-28 19:33N 37°47' E 122°32'1111.0
2014-Feb-28 18:33N 37°56' E 122°24'4611.5
2014-Feb-28 14:32N 38°39' E 122°02'1511.0
2014-Feb-28 13:08N 38°54' E 121°55'4 0.3
2014-Feb-27 23:05N 38°57' E 121°57'1 1.7
2014-Feb-27 22:33N 38°56' E 121°57'9 9.2
2014-Feb-27 21:33N 38°47' E 121°55'4 1.2
2014-Feb-27 18:29N 38°44' E 121°56'0 0.0
2014-Feb-27 17:29N 38°44' E 121°56'0 0.0
2014-Feb-27 16:29N 38°44' E 121°56'0 0.0
2014-Feb-27 15:29N 38°44' E 121°56'0 0.0
2014-Feb-27 14:23N 38°44' E 121°56'0 0.0
2014-Feb-27 13:17N 38°44' E 121°56'0 0.1
2014-Feb-27 12:29N 38°44' E 121°56'0 0.0
2014-Feb-27 11:29N 38°44' E 121°56'0 0.0
2014-Feb-27 10:29N 38°44' E 121°56'0 0.0
2014-Feb-27 09:23N 38°44' E 121°57'0 0.1
2014-Feb-27 08:29N 38°44' E 121°57'0 0.1
2014-Feb-27 07:29N 38°44' E 121°57'0 0.1
2014-Feb-27 06:29N 38°44' E 121°57'0 0.1
2014-Feb-27 05:29N 38°44' E 121°57'0 0.0
2014-Feb-27 04:23N 38°44' E 121°57'0 0.1
2014-Feb-27 03:05N 38°44' E 121°56'0 0.1
2014-Feb-27 02:29N 38°44' E 121°56'0 0.0
2014-Feb-27 01:29N 38°44' E 121°56'0 0.0
2014-Feb-27 00:29N 38°44' E 121°56'0 0.0
2014-Feb-26 23:23N 38°44' E 121°56'0 0.1
2014-Feb-26 22:29N 38°44' E 121°57'0 0.1
2014-Feb-26 21:29N 38°44' E 121°56'0 0.1
2014-Feb-26 20:29N 38°44' E 121°57'0 0.2
2014-Feb-26 19:29N 38°44' E 121°57'0 0.1
2014-Feb-26 17:29N 38°44' E 121°56'0 0.1
2014-Feb-26 16:29N 38°44' E 121°56'0 0.0
2014-Feb-26 15:29N 38°44' E 121°56'0 0.0
2014-Feb-26 14:29N 38°44' E 121°56'0 0.0
2014-Feb-26 13:29N 38°44' E 121°56'0 0.0
2014-Feb-26 12:29N 38°44' E 121°56'0 0.0
2014-Feb-26 11:29N 38°44' E 121°56'0 0.1
2014-Feb-26 10:17N 38°44' E 121°56'0 0.0
2014-Feb-26 09:05N 38°44' E 121°56'0 0.1
2014-Feb-26 07:05N 38°44' E 121°57'0 0.1
2014-Feb-26 06:17N 38°44' E 121°57'1 0.4
2014-Feb-26 02:33N 38°44' E 121°55'7 7.3
2014-Feb-26 01:33N 38°37' E 121°52'7 7.1
2014-Feb-26 00:33N 38°31' E 121°46'7 7.4
2014-Feb-25 23:33N 38°30' E 121°37'7 7.1
2014-Feb-25 22:33N 38°30' E 121°28'7 7.2
2014-Feb-25 21:33N 38°29' E 121°18'1010.4
2014-Feb-25 20:33N 38°29' E 121°05'137 9.8
2014-Feb-25 06:33N 38°52' E 118°12'1514.7
2014-Feb-25 05:33N 38°57' E 117°55'6 6.4
2014-Feb-25 04:33N 38°60' E 117°47'0 0.0
2014-Feb-25 03:34N 38°60' E 117°47'0 0.0
2014-Feb-25 02:34N 38°60' E 117°47'0 0.0
2014-Feb-25 01:34N 38°60' E 117°47'0 0.0
2014-Feb-25 00:33N 38°60' E 117°47'0 0.0
2014-Feb-24 23:33N 38°60' E 117°47'0 0.0
2014-Feb-24 22:34N 38°60' E 117°47'0 0.0
2014-Feb-24 21:34N 38°60' E 117°47'0 0.0
2014-Feb-24 20:34N 38°60' E 117°47'0 0.0
2014-Feb-24 19:34N 38°60' E 117°47'0 0.0
2014-Feb-24 18:34N 38°60' E 117°47'0 0.0
2014-Feb-24 17:33N 38°60' E 117°47'0 0.0
2014-Feb-24 16:34N 38°60' E 117°47'0 0.0
2014-Feb-24 15:34N 38°60' E 117°47'0 0.0
2014-Feb-24 14:33N 38°60' E 117°47'0 0.0
2014-Feb-24 13:34N 38°60' E 117°47'0 0.0
2014-Feb-24 12:34N 38°60' E 117°47'0 0.0
2014-Feb-24 11:33N 38°60' E 117°47'0 0.0
2014-Feb-24 10:33N 38°60' E 117°47'0 0.0
2014-Feb-24 09:33N 38°60' E 117°47'0 0.0
2014-Feb-24 08:33N 38°60' E 117°47'0 0.0
2014-Feb-24 07:33N 38°60' E 117°47'0 0.0
2014-Feb-24 06:34N 38°60' E 117°47'0 0.0
2014-Feb-24 05:33N 38°60' E 117°47'0 0.1
2014-Feb-24 04:34N 38°60' E 117°47'5 5.0
2014-Feb-24 03:34N 38°57' E 117°53'10 9.8
2014-Feb-24 02:33N 38°56' E 118°05'2 1.9
2014-Feb-24 01:29N 38°55' E 118°08'4 3.0
2014-Feb-24 00:18N 38°54' E 118°12'0 0.0
2014-Feb-23 23:06N 38°54' E 118°12'0 0.0
2014-Feb-23 22:33N 38°54' E 118°12'0 0.0
2014-Feb-23 21:30N 38°54' E 118°12'0 0.1
2014-Feb-23 19:18N 38°54' E 118°12'0 0.2
2014-Feb-23 18:33N 38°54' E 118°13'0 0.0
2014-Feb-23 15:30N 38°54' E 118°13'0 0.2
2014-Feb-23 14:33N 38°54' E 118°12'14713.3
2014-Feb-23 03:33N 38°28' E 121°17'1818.3
2014-Feb-23 02:33N 38°19' E 121°38'2518.3
2014-Feb-23 01:11N 38°08' E 122°06'1218.5
2014-Feb-23 00:33N 38°02' E 122°19'1918.5
2014-Feb-22 23:33N 37°49' E 122°36'1717.5
2014-Feb-22 22:33N 37°36' E 122°50'  
Track history (hours):
 
Tides and Currents Weather Stations Pressure Air Temp Water Temp Dewpoint Dewpoint Depression Visibility Wind Speed Wind Dir Waves Ship Positions

CMA CGM Vivaldi

Last reported at 2014-Mar-03 12:09 UTC. Time now 2014-Oct-26 07:10 UTC.
Position N 30°36' E 122°05'.
Warning: this ship's position is months out of date.

Length 334 m; draft 12.7 m.

Type: Ship. MMSI: 311768000.

Date/timePositionNaut miles runAvg speedWind from/ knotsBaromVisibWave heightAir tempDewpointWater temp
2014-Mar-03 12:09N 30°36' E 122°05'4 7.0
2014-Mar-03 11:33N 30°34' E 122°09'9 8.6
2014-Mar-03 10:33N 30°33' E 122°19'17 8.5
2014-Mar-03 08:33N 30°34' E 122°39'1614.9
2014-Mar-03 07:30N 30°45' E 122°52'33417.4
2014-Mar-02 12:22N 35°58' E 120°35'1215.3
2014-Mar-02 11:33N 36°01' E 120°20'6 4.5
2014-Mar-02 10:15N 36°01' E 120°13'0 0.0
2014-Mar-02 09:16N 36°01' E 120°13'0 0.0
2014-Mar-02 08:15N 36°01' E 120°13'0 0.0
2014-Mar-02 06:16N 36°01' E 120°13'0 0.0
2014-Mar-02 05:15N 36°01' E 120°13'0 0.0
2014-Mar-02 04:12N 36°01' E 120°13'0 0.0
2014-Mar-02 03:21N 36°01' E 120°13'0 0.0
2014-Mar-02 02:15N 36°01' E 120°13'0 0.0
2014-Mar-02 01:33N 36°01' E 120°13'0 0.0
2014-Mar-02 00:33N 36°01' E 120°13'0 0.0
2014-Mar-01 23:33N 36°01' E 120°13'0 0.0
2014-Mar-01 22:33N 36°01' E 120°13'0 0.0
2014-Mar-01 21:27N 36°01' E 120°13'0 0.0
2014-Mar-01 20:27N 36°01' E 120°13'0 0.0
2014-Mar-01 19:15N 36°01' E 120°13'0 0.0
2014-Mar-01 18:33N 36°01' E 120°13'0 0.0
2014-Mar-01 17:33N 36°01' E 120°13'0 0.0
2014-Mar-01 14:27N 36°01' E 120°13'1 0.9
2014-Mar-01 13:33N 36°01' E 120°13'9 9.4
2014-Mar-01 12:33N 36°01' E 120°25'7 6.7
2014-Mar-01 11:33N 35°59' E 120°33'7 6.8
2014-Mar-01 10:33N 35°58' E 120°41'10911.5
2014-Mar-01 01:04N 36°48' E 122°42'1111.8
2014-Mar-01 00:09N 36°59' E 122°44'4010.8
2014-Feb-28 20:28N 37°38' E 122°38'1011.2
2014-Feb-28 19:33N 37°47' E 122°32'1111.0
2014-Feb-28 18:33N 37°56' E 122°24'4611.5
2014-Feb-28 14:32N 38°39' E 122°02'1511.0
2014-Feb-28 13:08N 38°54' E 121°55'4 0.3
2014-Feb-27 23:05N 38°57' E 121°57'1 1.7
2014-Feb-27 22:33N 38°56' E 121°57'9 9.2
2014-Feb-27 21:33N 38°47' E 121°55'4 1.2
2014-Feb-27 18:29N 38°44' E 121°56'0 0.0
2014-Feb-27 17:29N 38°44' E 121°56'0 0.0
2014-Feb-27 16:29N 38°44' E 121°56'0 0.0
2014-Feb-27 15:29N 38°44' E 121°56'0 0.0
2014-Feb-27 14:23N 38°44' E 121°56'0 0.0
2014-Feb-27 13:17N 38°44' E 121°56'0 0.1
2014-Feb-27 12:29N 38°44' E 121°56'0 0.0
2014-Feb-27 11:29N 38°44' E 121°56'0 0.0
2014-Feb-27 10:29N 38°44' E 121°56'0 0.0
2014-Feb-27 09:23N 38°44' E 121°57'0 0.1
2014-Feb-27 08:29N 38°44' E 121°57'0 0.1
2014-Feb-27 07:29N 38°44' E 121°57'0 0.1
2014-Feb-27 06:29N 38°44' E 121°57'0 0.1
2014-Feb-27 05:29N 38°44' E 121°57'0 0.0
2014-Feb-27 04:23N 38°44' E 121°57'0 0.1
2014-Feb-27 03:05N 38°44' E 121°56'0 0.1
2014-Feb-27 02:29N 38°44' E 121°56'0 0.0
2014-Feb-27 01:29N 38°44' E 121°56'0 0.0
2014-Feb-27 00:29N 38°44' E 121°56'0 0.0
2014-Feb-26 23:23N 38°44' E 121°56'0 0.1
2014-Feb-26 22:29N 38°44' E 121°57'0 0.1
2014-Feb-26 21:29N 38°44' E 121°56'0 0.1
2014-Feb-26 20:29N 38°44' E 121°57'0 0.2
2014-Feb-26 19:29N 38°44' E 121°57'0 0.1
2014-Feb-26 17:29N 38°44' E 121°56'0 0.1
2014-Feb-26 16:29N 38°44' E 121°56'0 0.0
2014-Feb-26 15:29N 38°44' E 121°56'0 0.0
2014-Feb-26 14:29N 38°44' E 121°56'0 0.0
2014-Feb-26 13:29N 38°44' E 121°56'0 0.0
2014-Feb-26 12:29N 38°44' E 121°56'0 0.0
2014-Feb-26 11:29N 38°44' E 121°56'0 0.1
2014-Feb-26 10:17N 38°44' E 121°56'0 0.0
2014-Feb-26 09:05N 38°44' E 121°56'0 0.1
2014-Feb-26 07:05N 38°44' E 121°57'0 0.1
2014-Feb-26 06:17N 38°44' E 121°57'1 0.4
2014-Feb-26 02:33N 38°44' E 121°55'7 7.3
2014-Feb-26 01:33N 38°37' E 121°52'7 7.1
2014-Feb-26 00:33N 38°31' E 121°46'7 7.4
2014-Feb-25 23:33N 38°30' E 121°37'7 7.1
2014-Feb-25 22:33N 38°30' E 121°28'7 7.2
2014-Feb-25 21:33N 38°29' E 121°18'1010.4
2014-Feb-25 20:33N 38°29' E 121°05'137 9.8
2014-Feb-25 06:33N 38°52' E 118°12'1514.7
2014-Feb-25 05:33N 38°57' E 117°55'6 6.4
2014-Feb-25 04:33N 38°60' E 117°47'0 0.0
2014-Feb-25 03:34N 38°60' E 117°47'0 0.0
2014-Feb-25 02:34N 38°60' E 117°47'0 0.0
2014-Feb-25 01:34N 38°60' E 117°47'0 0.0
2014-Feb-25 00:33N 38°60' E 117°47'0 0.0
2014-Feb-24 23:33N 38°60' E 117°47'0 0.0
2014-Feb-24 22:34N 38°60' E 117°47'0 0.0
2014-Feb-24 21:34N 38°60' E 117°47'0 0.0
2014-Feb-24 20:34N 38°60' E 117°47'0 0.0
2014-Feb-24 19:34N 38°60' E 117°47'0 0.0
2014-Feb-24 18:34N 38°60' E 117°47'0 0.0
2014-Feb-24 17:33N 38°60' E 117°47'0 0.0
2014-Feb-24 16:34N 38°60' E 117°47'0 0.0
2014-Feb-24 15:34N 38°60' E 117°47'0 0.0
2014-Feb-24 14:33N 38°60' E 117°47'0 0.0
2014-Feb-24 13:34N 38°60' E 117°47'0 0.0
2014-Feb-24 12:34N 38°60' E 117°47'0 0.0
2014-Feb-24 11:33N 38°60' E 117°47'0 0.0
2014-Feb-24 10:33N 38°60' E 117°47'0 0.0
2014-Feb-24 09:33N 38°60' E 117°47'0 0.0
2014-Feb-24 08:33N 38°60' E 117°47'0 0.0
2014-Feb-24 07:33N 38°60' E 117°47'0 0.0
2014-Feb-24 06:34N 38°60' E 117°47'0 0.0
2014-Feb-24 05:33N 38°60' E 117°47'0 0.1
2014-Feb-24 04:34N 38°60' E 117°47'5 5.0
2014-Feb-24 03:34N 38°57' E 117°53'10 9.8
2014-Feb-24 02:33N 38°56' E 118°05'2 1.9
2014-Feb-24 01:29N 38°55' E 118°08'4 3.0
2014-Feb-24 00:18N 38°54' E 118°12'0 0.0
2014-Feb-23 23:06N 38°54' E 118°12'0 0.0
2014-Feb-23 22:33N 38°54' E 118°12'0 0.0
2014-Feb-23 21:30N 38°54' E 118°12'0 0.1
2014-Feb-23 19:18N 38°54' E 118°12'0 0.2
2014-Feb-23 18:33N 38°54' E 118°13'0 0.0
2014-Feb-23 15:30N 38°54' E 118°13'0 0.2
2014-Feb-23 14:33N 38°54' E 118°12'14713.3
2014-Feb-23 03:33N 38°28' E 121°17'1818.3
2014-Feb-23 02:33N 38°19' E 121°38'2518.3
2014-Feb-23 01:11N 38°08' E 122°06'1218.5
2014-Feb-23 00:33N 38°02' E 122°19'1918.5
2014-Feb-22 23:33N 37°49' E 122°36'1717.5
2014-Feb-22 22:33N 37°36' E 122°50'  

Dump ship's entire track history